sensor_id;sensor_type;location;lat;lon;timestamp;P1;durP1;ratioP1;P2;durP2;ratioP2
9222;SDS011;7557;51.698;3.942;2022-12-11T00:00:03;39.37;;;28.23;;
9222;SDS011;7557;51.698;3.942;2022-12-11T00:02:32;40.10;;;29.10;;
9222;SDS011;7557;51.698;3.942;2022-12-11T00:04:59;36.13;;;27.47;;
9222;SDS011;7557;51.698;3.942;2022-12-11T00:07:27;41.60;;;29.73;;
9222;SDS011;7557;51.698;3.942;2022-12-11T00:09:55;40.87;;;30.13;;
9222;SDS011;7557;51.698;3.942;2022-12-11T00:12:22;45.93;;;30.77;;
9222;SDS011;7557;51.698;3.942;2022-12-11T00:14:49;44.30;;;30.60;;
9222;SDS011;7557;51.698;3.942;2022-12-11T00:17:16;45.33;;;29.93;;
9222;SDS011;7557;51.698;3.942;2022-12-11T00:19:43;47.67;;;30.33;;
9222;SDS011;7557;51.698;3.942;2022-12-11T00:22:10;47.13;;;30.03;;
9222;SDS011;7557;51.698;3.942;2022-12-11T00:24:39;50.40;;;29.77;;
9222;SDS011;7557;51.698;3.942;2022-12-11T00:27:06;44.07;;;30.50;;
9222;SDS011;7557;51.698;3.942;2022-12-11T00:29:33;50.57;;;31.47;;
9222;SDS011;7557;51.698;3.942;2022-12-11T00:32:00;51.07;;;31.27;;
9222;SDS011;7557;51.698;3.942;2022-12-11T00:34:27;49.50;;;30.83;;
9222;SDS011;7557;51.698;3.942;2022-12-11T00:36:55;51.37;;;29.57;;
9222;SDS011;7557;51.698;3.942;2022-12-11T00:39:23;50.67;;;30.17;;
9222;SDS011;7557;51.698;3.942;2022-12-11T00:41:51;52.73;;;30.40;;
9222;SDS011;7557;51.698;3.942;2022-12-11T00:44:18;47.03;;;28.03;;
9222;SDS011;7557;51.698;3.942;2022-12-11T00:46:45;46.10;;;28.43;;
9222;SDS011;7557;51.698;3.942;2022-12-11T00:49:12;47.23;;;29.00;;
9222;SDS011;7557;51.698;3.942;2022-12-11T00:54:57;47.00;;;28.17;;
9222;SDS011;7557;51.698;3.942;2022-12-11T00:57:25;46.40;;;28.20;;
9222;SDS011;7557;51.698;3.942;2022-12-11T00:59:52;43.53;;;27.80;;
9222;SDS011;7557;51.698;3.942;2022-12-11T01:02:19;50.70;;;28.60;;
9222;SDS011;7557;51.698;3.942;2022-12-11T01:04:47;49.60;;;29.80;;
9222;SDS011;7557;51.698;3.942;2022-12-11T01:07:14;53.03;;;28.60;;
9222;SDS011;7557;51.698;3.942;2022-12-11T01:09:41;50.90;;;29.70;;
9222;SDS011;7557;51.698;3.942;2022-12-11T01:12:27;48.23;;;27.43;;
9222;SDS011;7557;51.698;3.942;2022-12-11T01:14:54;51.03;;;29.50;;
9222;SDS011;7557;51.698;3.942;2022-12-11T01:17:21;48.37;;;29.37;;
9222;SDS011;7557;51.698;3.942;2022-12-11T01:19:49;42.93;;;26.03;;
9222;SDS011;7557;51.698;3.942;2022-12-11T01:22:16;40.50;;;23.67;;
9222;SDS011;7557;51.698;3.942;2022-12-11T01:24:43;39.60;;;25.27;;
9222;SDS011;7557;51.698;3.942;2022-12-11T01:27:11;43.47;;;25.90;;
9222;SDS011;7557;51.698;3.942;2022-12-11T01:29:39;44.40;;;26.70;;
9222;SDS011;7557;51.698;3.942;2022-12-11T01:32:06;51.10;;;27.97;;
9222;SDS011;7557;51.698;3.942;2022-12-11T01:34:33;47.17;;;25.40;;
9222;SDS011;7557;51.698;3.942;2022-12-11T01:37:01;49.40;;;25.67;;
9222;SDS011;7557;51.698;3.942;2022-12-11T01:39:28;45.33;;;25.63;;
9222;SDS011;7557;51.698;3.942;2022-12-11T01:41:56;45.10;;;25.10;;
9222;SDS011;7557;51.698;3.942;2022-12-11T01:47:32;41.97;;;22.70;;
9222;SDS011;7557;51.698;3.942;2022-12-11T01:49:59;48.20;;;25.33;;
9222;SDS011;7557;51.698;3.942;2022-12-11T01:52:26;44.50;;;22.47;;
9222;SDS011;7557;51.698;3.942;2022-12-11T01:54:54;39.70;;;22.67;;
9222;SDS011;7557;51.698;3.942;2022-12-11T01:57:21;38.03;;;22.80;;
9222;SDS011;7557;51.698;3.942;2022-12-11T01:59:49;40.03;;;22.10;;
9222;SDS011;7557;51.698;3.942;2022-12-11T02:02:17;36.77;;;21.67;;
9222;SDS011;7557;51.698;3.942;2022-12-11T02:04:48;34.60;;;21.50;;
9222;SDS011;7557;51.698;3.942;2022-12-11T02:07:15;42.90;;;23.13;;
9222;SDS011;7557;51.698;3.942;2022-12-11T02:09:43;41.40;;;23.70;;
9222;SDS011;7557;51.698;3.942;2022-12-11T02:12:14;37.43;;;20.33;;
9222;SDS011;7557;51.698;3.942;2022-12-11T02:14:51;39.93;;;21.97;;
9222;SDS011;7557;51.698;3.942;2022-12-11T02:17:22;38.73;;;21.37;;
9222;SDS011;7557;51.698;3.942;2022-12-11T02:19:59;41.17;;;24.13;;
9222;SDS011;7557;51.698;3.942;2022-12-11T02:22:39;40.13;;;24.43;;
9222;SDS011;7557;51.698;3.942;2022-12-11T02:25:30;39.50;;;22.27;;
9222;SDS011;7557;51.698;3.942;2022-12-11T02:28:15;44.87;;;23.67;;
9222;SDS011;7557;51.698;3.942;2022-12-11T02:30:45;38.43;;;24.00;;
9222;SDS011;7557;51.698;3.942;2022-12-11T02:33:16;41.87;;;22.83;;
9222;SDS011;7557;51.698;3.942;2022-12-11T02:35:50;37.23;;;21.53;;
9222;SDS011;7557;51.698;3.942;2022-12-11T02:38:19;35.27;;;21.27;;
9222;SDS011;7557;51.698;3.942;2022-12-11T02:40:52;42.50;;;21.10;;
9222;SDS011;7557;51.698;3.942;2022-12-11T02:43:23;38.83;;;22.33;;
9222;SDS011;7557;51.698;3.942;2022-12-11T02:45:52;42.03;;;23.33;;
9222;SDS011;7557;51.698;3.942;2022-12-11T02:48:20;38.10;;;21.60;;
9222;SDS011;7557;51.698;3.942;2022-12-11T02:50:50;38.33;;;22.33;;
9222;SDS011;7557;51.698;3.942;2022-12-11T02:53:21;41.13;;;23.40;;
9222;SDS011;7557;51.698;3.942;2022-12-11T02:55:53;35.10;;;21.47;;
9222;SDS011;7557;51.698;3.942;2022-12-11T02:58:28;36.87;;;21.27;;
9222;SDS011;7557;51.698;3.942;2022-12-11T03:00:57;36.93;;;22.40;;
9222;SDS011;7557;51.698;3.942;2022-12-11T03:03:25;39.30;;;20.47;;
9222;SDS011;7557;51.698;3.942;2022-12-11T03:05:54;32.30;;;21.17;;
9222;SDS011;7557;51.698;3.942;2022-12-11T03:08:22;36.63;;;22.07;;
9222;SDS011;7557;51.698;3.942;2022-12-11T03:10:49;35.57;;;20.63;;
9222;SDS011;7557;51.698;3.942;2022-12-11T03:13:17;35.87;;;22.40;;
9222;SDS011;7557;51.698;3.942;2022-12-11T03:15:50;35.67;;;22.63;;
9222;SDS011;7557;51.698;3.942;2022-12-11T03:18:29;28.97;;;19.33;;
9222;SDS011;7557;51.698;3.942;2022-12-11T03:21:02;35.13;;;21.43;;
9222;SDS011;7557;51.698;3.942;2022-12-11T03:23:33;36.93;;;20.30;;
9222;SDS011;7557;51.698;3.942;2022-12-11T03:26:10;33.13;;;20.80;;
9222;SDS011;7557;51.698;3.942;2022-12-11T03:28:40;35.23;;;20.23;;
9222;SDS011;7557;51.698;3.942;2022-12-11T03:31:15;32.33;;;19.83;;
9222;SDS011;7557;51.698;3.942;2022-12-11T03:33:49;33.87;;;20.80;;
9222;SDS011;7557;51.698;3.942;2022-12-11T03:36:20;33.50;;;20.70;;
9222;SDS011;7557;51.698;3.942;2022-12-11T03:38:51;35.00;;;20.87;;
9222;SDS011;7557;51.698;3.942;2022-12-11T03:41:24;30.40;;;20.03;;
9222;SDS011;7557;51.698;3.942;2022-12-11T03:43:55;33.27;;;19.77;;
9222;SDS011;7557;51.698;3.942;2022-12-11T03:46:28;31.47;;;20.00;;
9222;SDS011;7557;51.698;3.942;2022-12-11T03:48:59;39.30;;;21.80;;
9222;SDS011;7557;51.698;3.942;2022-12-11T03:51:31;30.40;;;19.43;;
9222;SDS011;7557;51.698;3.942;2022-12-11T03:53:59;34.13;;;19.47;;
9222;SDS011;7557;51.698;3.942;2022-12-11T03:56:27;37.80;;;22.67;;
9222;SDS011;7557;51.698;3.942;2022-12-11T03:58:57;34.97;;;19.13;;
9222;SDS011;7557;51.698;3.942;2022-12-11T04:01:24;32.30;;;19.50;;
9222;SDS011;7557;51.698;3.942;2022-12-11T04:03:53;35.40;;;20.13;;
9222;SDS011;7557;51.698;3.942;2022-12-11T04:06:20;31.67;;;19.23;;
9222;SDS011;7557;51.698;3.942;2022-12-11T04:08:47;31.63;;;18.27;;
9222;SDS011;7557;51.698;3.942;2022-12-11T04:11:14;36.03;;;18.40;;
9222;SDS011;7557;51.698;3.942;2022-12-11T04:14:00;34.37;;;18.90;;
9222;SDS011;7557;51.698;3.942;2022-12-11T04:16:47;31.10;;;19.53;;
9222;SDS011;7557;51.698;3.942;2022-12-11T04:19:14;29.53;;;18.17;;
9222;SDS011;7557;51.698;3.942;2022-12-11T04:22:02;35.17;;;18.80;;
9222;SDS011;7557;51.698;3.942;2022-12-11T04:24:52;33.13;;;18.07;;
9222;SDS011;7557;51.698;3.942;2022-12-11T04:27:19;36.70;;;19.73;;
9222;SDS011;7557;51.698;3.942;2022-12-11T04:30:00;33.57;;;18.50;;
9222;SDS011;7557;51.698;3.942;2022-12-11T04:32:29;33.30;;;19.27;;
9222;SDS011;7557;51.698;3.942;2022-12-11T04:34:56;33.37;;;18.20;;
9222;SDS011;7557;51.698;3.942;2022-12-11T04:37:23;31.03;;;18.57;;
9222;SDS011;7557;51.698;3.942;2022-12-11T04:39:52;36.87;;;19.57;;
9222;SDS011;7557;51.698;3.942;2022-12-11T04:42:20;31.37;;;19.23;;
9222;SDS011;7557;51.698;3.942;2022-12-11T04:44:47;33.00;;;18.40;;
9222;SDS011;7557;51.698;3.942;2022-12-11T04:47:14;33.23;;;19.57;;
9222;SDS011;7557;51.698;3.942;2022-12-11T04:49:43;38.53;;;20.80;;
9222;SDS011;7557;51.698;3.942;2022-12-11T04:52:10;32.77;;;18.43;;
9222;SDS011;7557;51.698;3.942;2022-12-11T04:54:38;32.90;;;19.10;;
9222;SDS011;7557;51.698;3.942;2022-12-11T04:57:05;31.83;;;18.57;;
9222;SDS011;7557;51.698;3.942;2022-12-11T04:59:32;31.57;;;18.73;;
9222;SDS011;7557;51.698;3.942;2022-12-11T05:02:01;29.23;;;17.57;;
9222;SDS011;7557;51.698;3.942;2022-12-11T05:04:29;30.73;;;18.13;;
9222;SDS011;7557;51.698;3.942;2022-12-11T05:06:58;24.73;;;16.43;;
9222;SDS011;7557;51.698;3.942;2022-12-11T05:09:26;30.00;;;17.67;;
9222;SDS011;7557;51.698;3.942;2022-12-11T05:11:53;25.07;;;16.23;;
9222;SDS011;7557;51.698;3.942;2022-12-11T05:14:21;27.10;;;16.77;;
9222;SDS011;7557;51.698;3.942;2022-12-11T05:16:50;29.37;;;17.00;;
9222;SDS011;7557;51.698;3.942;2022-12-11T05:19:17;27.60;;;16.87;;
9222;SDS011;7557;51.698;3.942;2022-12-11T05:21:44;24.83;;;15.23;;
9222;SDS011;7557;51.698;3.942;2022-12-11T05:24:13;25.60;;;15.10;;
9222;SDS011;7557;51.698;3.942;2022-12-11T05:26:40;21.80;;;14.57;;
9222;SDS011;7557;51.698;3.942;2022-12-11T05:29:08;19.03;;;13.70;;
9222;SDS011;7557;51.698;3.942;2022-12-11T05:31:35;27.47;;;16.23;;
9222;SDS011;7557;51.698;3.942;2022-12-11T05:34:02;21.10;;;13.37;;
9222;SDS011;7557;51.698;3.942;2022-12-11T05:36:31;23.90;;;15.20;;
9222;SDS011;7557;51.698;3.942;2022-12-11T05:38:59;21.67;;;14.43;;
9222;SDS011;7557;51.698;3.942;2022-12-11T05:41:29;21.03;;;14.87;;
9222;SDS011;7557;51.698;3.942;2022-12-11T05:43:57;22.67;;;15.00;;
9222;SDS011;7557;51.698;3.942;2022-12-11T05:46:24;23.00;;;14.10;;
9222;SDS011;7557;51.698;3.942;2022-12-11T05:48:53;19.50;;;13.50;;
9222;SDS011;7557;51.698;3.942;2022-12-11T05:51:21;19.07;;;12.70;;
9222;SDS011;7557;51.698;3.942;2022-12-11T05:53:50;22.03;;;14.77;;
9222;SDS011;7557;51.698;3.942;2022-12-11T05:56:18;23.10;;;15.00;;
9222;SDS011;7557;51.698;3.942;2022-12-11T05:58:48;22.17;;;15.53;;
9222;SDS011;7557;51.698;3.942;2022-12-11T06:01:17;25.27;;;15.10;;
9222;SDS011;7557;51.698;3.942;2022-12-11T06:03:46;23.97;;;16.70;;
9222;SDS011;7557;51.698;3.942;2022-12-11T06:06:14;23.43;;;15.50;;
9222;SDS011;7557;51.698;3.942;2022-12-11T06:08:41;20.93;;;14.00;;
9222;SDS011;7557;51.698;3.942;2022-12-11T06:11:10;19.10;;;12.30;;
9222;SDS011;7557;51.698;3.942;2022-12-11T06:13:38;24.00;;;14.47;;
9222;SDS011;7557;51.698;3.942;2022-12-11T06:16:07;21.57;;;14.80;;
9222;SDS011;7557;51.698;3.942;2022-12-11T06:18:35;27.73;;;16.43;;
9222;SDS011;7557;51.698;3.942;2022-12-11T06:21:09;27.57;;;17.07;;
9222;SDS011;7557;51.698;3.942;2022-12-11T06:23:38;28.40;;;16.53;;
9222;SDS011;7557;51.698;3.942;2022-12-11T06:26:05;28.93;;;17.50;;
9222;SDS011;7557;51.698;3.942;2022-12-11T06:28:33;31.50;;;18.97;;
9222;SDS011;7557;51.698;3.942;2022-12-11T06:31:00;32.37;;;18.97;;
9222;SDS011;7557;51.698;3.942;2022-12-11T06:33:29;35.83;;;19.77;;
9222;SDS011;7557;51.698;3.942;2022-12-11T06:35:59;36.50;;;20.80;;
9222;SDS011;7557;51.698;3.942;2022-12-11T06:38:27;34.13;;;20.63;;
9222;SDS011;7557;51.698;3.942;2022-12-11T06:40:54;33.60;;;18.40;;
9222;SDS011;7557;51.698;3.942;2022-12-11T06:43:23;33.87;;;18.63;;
9222;SDS011;7557;51.698;3.942;2022-12-11T06:45:50;34.63;;;19.70;;
9222;SDS011;7557;51.698;3.942;2022-12-11T06:48:18;33.90;;;19.03;;
9222;SDS011;7557;51.698;3.942;2022-12-11T06:50:47;29.90;;;18.37;;
9222;SDS011;7557;51.698;3.942;2022-12-11T06:53:14;31.47;;;18.67;;
9222;SDS011;7557;51.698;3.942;2022-12-11T06:55:42;33.90;;;20.53;;
9222;SDS011;7557;51.698;3.942;2022-12-11T06:58:10;36.50;;;21.20;;
9222;SDS011;7557;51.698;3.942;2022-12-11T07:00:37;37.10;;;20.17;;
9222;SDS011;7557;51.698;3.942;2022-12-11T07:03:04;32.63;;;18.73;;
9222;SDS011;7557;51.698;3.942;2022-12-11T07:05:32;32.53;;;19.33;;
9222;SDS011;7557;51.698;3.942;2022-12-11T07:08:01;36.97;;;20.97;;
9222;SDS011;7557;51.698;3.942;2022-12-11T07:10:28;38.60;;;21.57;;
9222;SDS011;7557;51.698;3.942;2022-12-11T07:12:56;34.77;;;19.13;;
9222;SDS011;7557;51.698;3.942;2022-12-11T07:15:23;33.20;;;20.57;;
9222;SDS011;7557;51.698;3.942;2022-12-11T07:17:50;34.23;;;20.77;;
9222;SDS011;7557;51.698;3.942;2022-12-11T07:20:17;41.70;;;23.40;;
9222;SDS011;7557;51.698;3.942;2022-12-11T07:22:44;42.63;;;23.03;;
9222;SDS011;7557;51.698;3.942;2022-12-11T07:25:13;39.03;;;23.37;;
9222;SDS011;7557;51.698;3.942;2022-12-11T07:27:41;40.40;;;22.50;;
9222;SDS011;7557;51.698;3.942;2022-12-11T07:30:08;47.37;;;25.60;;
9222;SDS011;7557;51.698;3.942;2022-12-11T07:32:36;42.57;;;24.17;;
9222;SDS011;7557;51.698;3.942;2022-12-11T07:35:05;40.07;;;21.90;;
9222;SDS011;7557;51.698;3.942;2022-12-11T07:37:32;42.57;;;23.43;;
9222;SDS011;7557;51.698;3.942;2022-12-11T07:40:00;41.97;;;24.83;;
9222;SDS011;7557;51.698;3.942;2022-12-11T07:42:29;44.17;;;23.53;;
9222;SDS011;7557;51.698;3.942;2022-12-11T07:44:56;48.33;;;24.87;;
9222;SDS011;7557;51.698;3.942;2022-12-11T07:47:23;48.90;;;26.07;;
9222;SDS011;7557;51.698;3.942;2022-12-11T07:49:50;41.07;;;24.07;;
9222;SDS011;7557;51.698;3.942;2022-12-11T07:52:18;41.07;;;23.53;;
9222;SDS011;7557;51.698;3.942;2022-12-11T07:54:45;40.43;;;23.33;;
9222;SDS011;7557;51.698;3.942;2022-12-11T07:57:12;39.10;;;21.73;;
9222;SDS011;7557;51.698;3.942;2022-12-11T07:59:41;38.47;;;22.97;;
9222;SDS011;7557;51.698;3.942;2022-12-11T08:02:08;40.47;;;23.80;;
9222;SDS011;7557;51.698;3.942;2022-12-11T08:04:36;45.60;;;24.47;;
9222;SDS011;7557;51.698;3.942;2022-12-11T08:07:04;42.63;;;23.77;;
9222;SDS011;7557;51.698;3.942;2022-12-11T08:09:31;39.17;;;23.97;;
9222;SDS011;7557;51.698;3.942;2022-12-11T08:11:58;42.73;;;24.60;;
9222;SDS011;7557;51.698;3.942;2022-12-11T08:14:25;46.33;;;24.90;;
9222;SDS011;7557;51.698;3.942;2022-12-11T08:16:54;44.40;;;25.33;;
9222;SDS011;7557;51.698;3.942;2022-12-11T08:19:22;42.60;;;24.00;;
9222;SDS011;7557;51.698;3.942;2022-12-11T08:21:49;47.03;;;24.90;;
9222;SDS011;7557;51.698;3.942;2022-12-11T08:24:16;44.70;;;25.00;;
9222;SDS011;7557;51.698;3.942;2022-12-11T08:26:45;42.90;;;24.73;;
9222;SDS011;7557;51.698;3.942;2022-12-11T08:29:13;42.30;;;24.27;;
9222;SDS011;7557;51.698;3.942;2022-12-11T08:31:40;43.13;;;24.53;;
9222;SDS011;7557;51.698;3.942;2022-12-11T08:34:09;44.60;;;25.77;;
9222;SDS011;7557;51.698;3.942;2022-12-11T08:36:38;48.30;;;26.33;;
9222;SDS011;7557;51.698;3.942;2022-12-11T08:39:06;40.60;;;24.50;;
9222;SDS011;7557;51.698;3.942;2022-12-11T08:41:33;44.90;;;26.27;;
9222;SDS011;7557;51.698;3.942;2022-12-11T08:44:00;46.10;;;26.00;;
9222;SDS011;7557;51.698;3.942;2022-12-11T08:46:28;43.63;;;25.77;;
9222;SDS011;7557;51.698;3.942;2022-12-11T08:48:58;46.70;;;26.77;;
9222;SDS011;7557;51.698;3.942;2022-12-11T08:51:27;46.40;;;26.37;;
9222;SDS011;7557;51.698;3.942;2022-12-11T08:53:56;44.53;;;25.90;;
9222;SDS011;7557;51.698;3.942;2022-12-11T08:56:25;48.30;;;27.73;;
9222;SDS011;7557;51.698;3.942;2022-12-11T08:58:52;50.07;;;27.67;;
9222;SDS011;7557;51.698;3.942;2022-12-11T09:01:21;45.77;;;25.63;;
9222;SDS011;7557;51.698;3.942;2022-12-11T09:03:49;46.43;;;26.50;;
9222;SDS011;7557;51.698;3.942;2022-12-11T09:06:18;53.47;;;27.40;;
9222;SDS011;7557;51.698;3.942;2022-12-11T09:08:48;50.87;;;28.73;;
9222;SDS011;7557;51.698;3.942;2022-12-11T09:11:18;43.53;;;27.00;;
9222;SDS011;7557;51.698;3.942;2022-12-11T09:13:46;47.90;;;27.03;;
9222;SDS011;7557;51.698;3.942;2022-12-11T09:16:15;51.13;;;27.90;;
9222;SDS011;7557;51.698;3.942;2022-12-11T09:18:44;50.33;;;28.63;;
9222;SDS011;7557;51.698;3.942;2022-12-11T09:21:13;50.20;;;27.80;;
9222;SDS011;7557;51.698;3.942;2022-12-11T09:23:41;48.67;;;27.13;;
9222;SDS011;7557;51.698;3.942;2022-12-11T09:26:12;50.67;;;27.30;;
9222;SDS011;7557;51.698;3.942;2022-12-11T09:28:40;42.63;;;27.17;;
9222;SDS011;7557;51.698;3.942;2022-12-11T09:31:09;44.70;;;25.80;;
9222;SDS011;7557;51.698;3.942;2022-12-11T09:33:37;45.33;;;26.43;;
9222;SDS011;7557;51.698;3.942;2022-12-11T09:36:05;44.80;;;26.90;;
9222;SDS011;7557;51.698;3.942;2022-12-11T09:38:33;46.13;;;26.80;;
9222;SDS011;7557;51.698;3.942;2022-12-11T09:41:01;50.17;;;28.63;;
9222;SDS011;7557;51.698;3.942;2022-12-11T09:43:43;49.80;;;30.07;;
9222;SDS011;7557;51.698;3.942;2022-12-11T09:46:14;49.60;;;28.37;;
9222;SDS011;7557;51.698;3.942;2022-12-11T09:48:43;51.50;;;27.53;;
9222;SDS011;7557;51.698;3.942;2022-12-11T09:51:14;44.63;;;26.43;;
9222;SDS011;7557;51.698;3.942;2022-12-11T09:53:49;43.97;;;26.67;;
9222;SDS011;7557;51.698;3.942;2022-12-11T09:56:20;42.20;;;26.40;;
9222;SDS011;7557;51.698;3.942;2022-12-11T09:58:59;47.13;;;26.53;;
9222;SDS011;7557;51.698;3.942;2022-12-11T10:01:33;46.53;;;26.30;;
9222;SDS011;7557;51.698;3.942;2022-12-11T10:04:13;50.23;;;27.83;;
9222;SDS011;7557;51.698;3.942;2022-12-11T10:06:56;47.00;;;28.23;;
9222;SDS011;7557;51.698;3.942;2022-12-11T10:09:32;51.07;;;28.33;;
9222;SDS011;7557;51.698;3.942;2022-12-11T10:12:07;47.27;;;26.60;;
9222;SDS011;7557;51.698;3.942;2022-12-11T10:14:49;48.23;;;28.03;;
9222;SDS011;7557;51.698;3.942;2022-12-11T10:17:24;46.10;;;27.07;;
9222;SDS011;7557;51.698;3.942;2022-12-11T10:19:54;55.47;;;28.60;;
9222;SDS011;7557;51.698;3.942;2022-12-11T10:22:23;50.03;;;28.07;;
9222;SDS011;7557;51.698;3.942;2022-12-11T10:24:55;52.70;;;29.97;;
9222;SDS011;7557;51.698;3.942;2022-12-11T10:27:27;49.57;;;27.17;;
9222;SDS011;7557;51.698;3.942;2022-12-11T10:30:00;56.33;;;30.97;;
9222;SDS011;7557;51.698;3.942;2022-12-11T10:32:31;49.50;;;27.97;;
9222;SDS011;7557;51.698;3.942;2022-12-11T10:35:14;45.50;;;27.10;;
9222;SDS011;7557;51.698;3.942;2022-12-11T10:37:45;54.50;;;29.27;;
9222;SDS011;7557;51.698;3.942;2022-12-11T10:40:12;52.43;;;29.93;;
9222;SDS011;7557;51.698;3.942;2022-12-11T10:42:39;50.13;;;28.63;;
9222;SDS011;7557;51.698;3.942;2022-12-11T10:45:19;53.23;;;29.33;;
9222;SDS011;7557;51.698;3.942;2022-12-11T10:47:46;57.70;;;31.30;;
9222;SDS011;7557;51.698;3.942;2022-12-11T10:50:20;52.87;;;30.63;;
9222;SDS011;7557;51.698;3.942;2022-12-11T10:52:49;53.87;;;29.40;;
9222;SDS011;7557;51.698;3.942;2022-12-11T10:55:17;50.43;;;29.43;;
9222;SDS011;7557;51.698;3.942;2022-12-11T10:57:53;53.87;;;29.73;;
9222;SDS011;7557;51.698;3.942;2022-12-11T11:00:28;49.23;;;29.03;;
9222;SDS011;7557;51.698;3.942;2022-12-11T11:02:58;52.30;;;29.20;;
9222;SDS011;7557;51.698;3.942;2022-12-11T11:05:27;52.07;;;30.13;;
9222;SDS011;7557;51.698;3.942;2022-12-11T11:08:03;53.67;;;29.33;;
9222;SDS011;7557;51.698;3.942;2022-12-11T11:10:47;53.07;;;28.83;;
9222;SDS011;7557;51.698;3.942;2022-12-11T11:13:15;51.63;;;28.67;;
9222;SDS011;7557;51.698;3.942;2022-12-11T11:15:44;52.23;;;29.17;;
9222;SDS011;7557;51.698;3.942;2022-12-11T11:18:22;47.97;;;28.10;;
9222;SDS011;7557;51.698;3.942;2022-12-11T11:20:51;50.80;;;27.30;;
9222;SDS011;7557;51.698;3.942;2022-12-11T11:23:19;49.13;;;29.13;;
9222;SDS011;7557;51.698;3.942;2022-12-11T11:25:48;51.77;;;29.47;;
9222;SDS011;7557;51.698;3.942;2022-12-11T11:28:18;47.10;;;27.77;;
9222;SDS011;7557;51.698;3.942;2022-12-11T11:30:56;49.87;;;26.93;;
9222;SDS011;7557;51.698;3.942;2022-12-11T11:33:26;47.77;;;26.37;;
9222;SDS011;7557;51.698;3.942;2022-12-11T11:35:55;47.67;;;26.50;;
9222;SDS011;7557;51.698;3.942;2022-12-11T11:38:25;50.00;;;27.13;;
9222;SDS011;7557;51.698;3.942;2022-12-11T11:40:57;45.50;;;26.27;;
9222;SDS011;7557;51.698;3.942;2022-12-11T11:43:32;48.33;;;26.70;;
9222;SDS011;7557;51.698;3.942;2022-12-11T11:46:04;46.70;;;27.00;;
9222;SDS011;7557;51.698;3.942;2022-12-11T11:48:39;44.50;;;26.07;;
9222;SDS011;7557;51.698;3.942;2022-12-11T11:51:18;50.43;;;27.63;;
9222;SDS011;7557;51.698;3.942;2022-12-11T11:53:51;49.17;;;27.40;;
9222;SDS011;7557;51.698;3.942;2022-12-11T11:56:22;46.03;;;27.30;;
9222;SDS011;7557;51.698;3.942;2022-12-11T11:58:56;46.77;;;26.70;;
9222;SDS011;7557;51.698;3.942;2022-12-11T12:01:30;43.77;;;24.80;;
9222;SDS011;7557;51.698;3.942;2022-12-11T12:03:57;44.47;;;27.53;;
9222;SDS011;7557;51.698;3.942;2022-12-11T12:06:32;46.37;;;26.57;;
9222;SDS011;7557;51.698;3.942;2022-12-11T12:09:10;41.70;;;25.10;;
9222;SDS011;7557;51.698;3.942;2022-12-11T12:11:48;40.53;;;22.40;;
9222;SDS011;7557;51.698;3.942;2022-12-11T12:14:21;38.77;;;23.83;;
9222;SDS011;7557;51.698;3.942;2022-12-11T12:16:55;40.60;;;24.20;;
9222;SDS011;7557;51.698;3.942;2022-12-11T12:19:37;38.27;;;24.03;;
9222;SDS011;7557;51.698;3.942;2022-12-11T12:22:14;37.27;;;23.20;;
9222;SDS011;7557;51.698;3.942;2022-12-11T12:24:52;45.30;;;27.60;;
9222;SDS011;7557;51.698;3.942;2022-12-11T12:27:29;45.07;;;26.87;;
9222;SDS011;7557;51.698;3.942;2022-12-11T12:30:05;44.50;;;25.50;;
9222;SDS011;7557;51.698;3.942;2022-12-11T12:32:41;49.00;;;28.00;;
9222;SDS011;7557;51.698;3.942;2022-12-11T12:35:28;49.07;;;26.93;;
9222;SDS011;7557;51.698;3.942;2022-12-11T12:38:03;41.80;;;25.43;;
9222;SDS011;7557;51.698;3.942;2022-12-11T12:40:39;39.43;;;23.90;;
9222;SDS011;7557;51.698;3.942;2022-12-11T12:43:34;39.83;;;23.33;;
9222;SDS011;7557;51.698;3.942;2022-12-11T12:46:15;33.57;;;20.90;;
9222;SDS011;7557;51.698;3.942;2022-12-11T12:48:51;37.00;;;21.93;;
9222;SDS011;7557;51.698;3.942;2022-12-11T12:51:21;37.53;;;23.07;;
9222;SDS011;7557;51.698;3.942;2022-12-11T12:53:51;39.97;;;22.30;;
9222;SDS011;7557;51.698;3.942;2022-12-11T12:56:21;35.77;;;21.27;;
9222;SDS011;7557;51.698;3.942;2022-12-11T12:58:49;32.23;;;19.77;;
9222;SDS011;7557;51.698;3.942;2022-12-11T13:01:16;34.90;;;20.77;;
9222;SDS011;7557;51.698;3.942;2022-12-11T13:03:52;41.37;;;23.67;;
9222;SDS011;7557;51.698;3.942;2022-12-11T13:06:29;42.30;;;23.87;;
9222;SDS011;7557;51.698;3.942;2022-12-11T13:09:09;43.53;;;23.53;;
9222;SDS011;7557;51.698;3.942;2022-12-11T13:11:40;40.53;;;23.30;;
9222;SDS011;7557;51.698;3.942;2022-12-11T13:14:20;38.83;;;22.57;;
9222;SDS011;7557;51.698;3.942;2022-12-11T13:16:52;34.23;;;20.40;;
9222;SDS011;7557;51.698;3.942;2022-12-11T13:19:33;40.00;;;23.57;;
9222;SDS011;7557;51.698;3.942;2022-12-11T13:22:02;33.77;;;21.73;;
9222;SDS011;7557;51.698;3.942;2022-12-11T13:24:45;36.07;;;22.37;;
9222;SDS011;7557;51.698;3.942;2022-12-11T13:27:22;34.37;;;21.10;;
9222;SDS011;7557;51.698;3.942;2022-12-11T13:29:51;36.37;;;22.33;;
9222;SDS011;7557;51.698;3.942;2022-12-11T13:32:31;36.80;;;22.80;;
9222;SDS011;7557;51.698;3.942;2022-12-11T13:35:03;33.47;;;20.57;;
9222;SDS011;7557;51.698;3.942;2022-12-11T13:37:32;34.50;;;21.23;;
9222;SDS011;7557;51.698;3.942;2022-12-11T13:40:03;32.20;;;19.97;;
9222;SDS011;7557;51.698;3.942;2022-12-11T13:42:33;33.10;;;20.67;;
9222;SDS011;7557;51.698;3.942;2022-12-11T13:45:05;34.23;;;20.70;;
9222;SDS011;7557;51.698;3.942;2022-12-11T13:47:43;31.30;;;20.03;;
9222;SDS011;7557;51.698;3.942;2022-12-11T13:50:14;36.20;;;21.97;;
9222;SDS011;7557;51.698;3.942;2022-12-11T13:52:54;37.83;;;23.70;;
9222;SDS011;7557;51.698;3.942;2022-12-11T13:55:22;36.47;;;23.90;;
9222;SDS011;7557;51.698;3.942;2022-12-11T13:57:51;40.03;;;22.67;;
9222;SDS011;7557;51.698;3.942;2022-12-11T14:00:20;33.43;;;21.93;;
9222;SDS011;7557;51.698;3.942;2022-12-11T14:02:49;37.17;;;22.63;;
9222;SDS011;7557;51.698;3.942;2022-12-11T14:05:19;35.07;;;21.67;;
9222;SDS011;7557;51.698;3.942;2022-12-11T14:07:47;40.33;;;24.63;;
9222;SDS011;7557;51.698;3.942;2022-12-11T14:10:18;38.93;;;23.20;;
9222;SDS011;7557;51.698;3.942;2022-12-11T14:12:49;47.40;;;27.03;;
9222;SDS011;7557;51.698;3.942;2022-12-11T14:15:19;44.43;;;24.10;;
9222;SDS011;7557;51.698;3.942;2022-12-11T14:17:47;40.20;;;24.00;;
9222;SDS011;7557;51.698;3.942;2022-12-11T14:20:16;41.40;;;23.27;;
9222;SDS011;7557;51.698;3.942;2022-12-11T14:22:47;40.87;;;24.10;;
9222;SDS011;7557;51.698;3.942;2022-12-11T14:25:19;41.47;;;23.67;;
9222;SDS011;7557;51.698;3.942;2022-12-11T14:27:49;38.67;;;24.30;;
9222;SDS011;7557;51.698;3.942;2022-12-11T14:30:21;36.60;;;22.07;;
9222;SDS011;7557;51.698;3.942;2022-12-11T14:32:52;40.03;;;23.47;;
9222;SDS011;7557;51.698;3.942;2022-12-11T14:35:24;38.60;;;23.20;;
9222;SDS011;7557;51.698;3.942;2022-12-11T14:37:54;45.90;;;27.40;;
9222;SDS011;7557;51.698;3.942;2022-12-11T14:40:27;40.17;;;25.03;;
9222;SDS011;7557;51.698;3.942;2022-12-11T14:43:01;44.80;;;26.23;;
9222;SDS011;7557;51.698;3.942;2022-12-11T14:45:35;44.67;;;26.83;;
9222;SDS011;7557;51.698;3.942;2022-12-11T14:48:07;45.50;;;27.30;;
9222;SDS011;7557;51.698;3.942;2022-12-11T14:50:40;40.83;;;25.10;;
9222;SDS011;7557;51.698;3.942;2022-12-11T14:53:16;43.67;;;23.97;;
9222;SDS011;7557;51.698;3.942;2022-12-11T14:55:47;39.83;;;25.07;;
9222;SDS011;7557;51.698;3.942;2022-12-11T14:58:17;42.07;;;24.83;;
9222;SDS011;7557;51.698;3.942;2022-12-11T15:00:54;35.57;;;22.30;;
9222;SDS011;7557;51.698;3.942;2022-12-11T15:03:23;39.97;;;23.27;;
9222;SDS011;7557;51.698;3.942;2022-12-11T15:05:56;32.03;;;21.30;;
9222;SDS011;7557;51.698;3.942;2022-12-11T15:08:26;33.57;;;21.70;;
9222;SDS011;7557;51.698;3.942;2022-12-11T15:10:58;30.10;;;19.70;;
9222;SDS011;7557;51.698;3.942;2022-12-11T15:13:28;29.83;;;19.40;;